Larrys River, Canada
Current Conditions -  °F | °C
As of 1:00 PM on Friday 28 Nov 2014 (Local Time) from CYPD Reporting Station
Broken Clouds Broken Clouds  
Wind Chill: 26°   Ceiling: 3900
Heat Index: 32°   Visibility: 9mi
Dew Point: 25°   Wind: 6mph
Humidity: 75%   Direction: 50°NE
Pressure: 29.85"   Gusts: NA
Location:  45.22°N, 61.37°W
Report Text: CYPD 281700Z AUTO 05005KT 350V080 9SM SCT021 BKN039 M00/M04 A2985 RMK PRESFR SLP112
Loading
Personal Weather Stations






























Interactive Weather Map New forecast layout! Learn more

10-Day Weather Forecast

Advertisements
Track Severe Weather on mobile